sensor_id;sensor_type;location;lat;lon;timestamp;P1;durP1;ratioP1;P2;durP2;ratioP2
67997;SDS011;54773;53.388;-1.504;2024-02-04T00:01:43;9.30;;;3.07;;
67997;SDS011;54773;53.388;-1.504;2024-02-04T00:04:28;13.75;;;3.20;;
67997;SDS011;54773;53.388;-1.504;2024-02-04T00:07:12;8.33;;;2.33;;
67997;SDS011;54773;53.388;-1.504;2024-02-04T00:09:55;8.82;;;2.53;;
67997;SDS011;54773;53.388;-1.504;2024-02-04T00:12:39;8.50;;;2.40;;
67997;SDS011;54773;53.388;-1.504;2024-02-04T00:15:23;10.32;;;2.45;;
67997;SDS011;54773;53.388;-1.504;2024-02-04T00:18:07;7.03;;;2.70;;
67997;SDS011;54773;53.388;-1.504;2024-02-04T00:20:51;9.23;;;2.60;;
67997;SDS011;54773;53.388;-1.504;2024-02-04T00:23:35;10.95;;;2.70;;
67997;SDS011;54773;53.388;-1.504;2024-02-04T00:26:19;10.38;;;2.42;;
67997;SDS011;54773;53.388;-1.504;2024-02-04T00:29:03;10.70;;;2.43;;
67997;SDS011;54773;53.388;-1.504;2024-02-04T00:31:47;9.20;;;2.40;;
67997;SDS011;54773;53.388;-1.504;2024-02-04T00:34:31;7.97;;;2.35;;
67997;SDS011;54773;53.388;-1.504;2024-02-04T00:37:15;7.65;;;2.05;;
67997;SDS011;54773;53.388;-1.504;2024-02-04T00:39:59;4.57;;;1.50;;
67997;SDS011;54773;53.388;-1.504;2024-02-04T00:42:43;7.22;;;2.00;;
67997;SDS011;54773;53.388;-1.504;2024-02-04T00:45:27;8.98;;;1.45;;
67997;SDS011;54773;53.388;-1.504;2024-02-04T00:48:11;7.22;;;1.35;;
67997;SDS011;54773;53.388;-1.504;2024-02-04T00:50:54;6.50;;;1.60;;
67997;SDS011;54773;53.388;-1.504;2024-02-04T00:53:38;9.15;;;1.45;;
67997;SDS011;54773;53.388;-1.504;2024-02-04T00:56:22;7.70;;;1.47;;
67997;SDS011;54773;53.388;-1.504;2024-02-04T00:59:06;5.93;;;1.30;;
67997;SDS011;54773;53.388;-1.504;2024-02-04T01:01:50;5.85;;;1.38;;
67997;SDS011;54773;53.388;-1.504;2024-02-04T01:04:34;9.82;;;1.73;;
67997;SDS011;54773;53.388;-1.504;2024-02-04T01:07:18;7.72;;;1.55;;
67997;SDS011;54773;53.388;-1.504;2024-02-04T01:10:02;7.90;;;1.80;;
67997;SDS011;54773;53.388;-1.504;2024-02-04T01:12:47;6.30;;;1.33;;
67997;SDS011;54773;53.388;-1.504;2024-02-04T01:15:31;5.43;;;1.65;;
67997;SDS011;54773;53.388;-1.504;2024-02-04T01:18:15;5.70;;;1.30;;
67997;SDS011;54773;53.388;-1.504;2024-02-04T01:20:59;3.30;;;1.30;;
67997;SDS011;54773;53.388;-1.504;2024-02-04T01:23:44;6.93;;;1.10;;
67997;SDS011;54773;53.388;-1.504;2024-02-04T01:26:28;7.38;;;1.50;;
67997;SDS011;54773;53.388;-1.504;2024-02-04T01:29:12;5.10;;;1.20;;
67997;SDS011;54773;53.388;-1.504;2024-02-04T01:31:56;4.38;;;1.20;;
67997;SDS011;54773;53.388;-1.504;2024-02-04T01:34:40;4.27;;;0.87;;
67997;SDS011;54773;53.388;-1.504;2024-02-04T01:37:24;6.82;;;2.28;;
67997;SDS011;54773;53.388;-1.504;2024-02-04T01:40:08;9.27;;;1.45;;
67997;SDS011;54773;53.388;-1.504;2024-02-04T01:42:52;8.32;;;1.20;;
67997;SDS011;54773;53.388;-1.504;2024-02-04T01:45:36;2.70;;;0.90;;
67997;SDS011;54773;53.388;-1.504;2024-02-04T01:48:20;2.72;;;0.90;;
67997;SDS011;54773;53.388;-1.504;2024-02-04T01:51:05;3.35;;;0.88;;
67997;SDS011;54773;53.388;-1.504;2024-02-04T01:53:49;2.70;;;0.93;;
67997;SDS011;54773;53.388;-1.504;2024-02-04T01:56:33;4.88;;;1.17;;
67997;SDS011;54773;53.388;-1.504;2024-02-04T01:59:19;2.80;;;0.73;;
67997;SDS011;54773;53.388;-1.504;2024-02-04T02:02:03;6.75;;;1.23;;
67997;SDS011;54773;53.388;-1.504;2024-02-04T02:04:47;6.25;;;1.10;;
67997;SDS011;54773;53.388;-1.504;2024-02-04T02:07:31;6.30;;;1.02;;
67997;SDS011;54773;53.388;-1.504;2024-02-04T02:10:15;4.60;;;1.00;;
67997;SDS011;54773;53.388;-1.504;2024-02-04T02:12:59;1.77;;;0.90;;
67997;SDS011;54773;53.388;-1.504;2024-02-04T02:15:54;4.63;;;1.10;;
67997;SDS011;54773;53.388;-1.504;2024-02-04T02:22:04;3.97;;;1.02;;
67997;SDS011;54773;53.388;-1.504;2024-02-04T02:24:42;5.88;;;1.27;;
67997;SDS011;54773;53.388;-1.504;2024-02-04T02:27:26;5.18;;;1.10;;
67997;SDS011;54773;53.388;-1.504;2024-02-04T02:30:10;2.95;;;1.00;;
67997;SDS011;54773;53.388;-1.504;2024-02-04T02:32:54;5.68;;;1.00;;
67997;SDS011;54773;53.388;-1.504;2024-02-04T02:35:38;6.50;;;1.25;;
67997;SDS011;54773;53.388;-1.504;2024-02-04T02:39:08;2.13;;;0.90;;
67997;SDS011;54773;53.388;-1.504;2024-02-04T02:41:30;4.45;;;1.20;;
67997;SDS011;54773;53.388;-1.504;2024-02-04T02:44:14;4.03;;;1.27;;
67997;SDS011;54773;53.388;-1.504;2024-02-04T02:46:58;3.92;;;1.00;;
67997;SDS011;54773;53.388;-1.504;2024-02-04T02:52:27;5.93;;;1.10;;
67997;SDS011;54773;53.388;-1.504;2024-02-04T02:55:11;4.70;;;1.38;;
67997;SDS011;54773;53.388;-1.504;2024-02-04T02:57:55;7.57;;;1.23;;
67997;SDS011;54773;53.388;-1.504;2024-02-04T03:00:38;7.53;;;1.00;;
67997;SDS011;54773;53.388;-1.504;2024-02-04T03:03:23;7.40;;;1.20;;
67997;SDS011;54773;53.388;-1.504;2024-02-04T03:06:06;4.87;;;1.10;;
67997;SDS011;54773;53.388;-1.504;2024-02-04T03:11:35;2.95;;;1.00;;
67997;SDS011;54773;53.388;-1.504;2024-02-04T03:14:22;6.30;;;1.25;;
67997;SDS011;54773;53.388;-1.504;2024-02-04T03:17:06;2.28;;;0.70;;
67997;SDS011;54773;53.388;-1.504;2024-02-04T03:19:50;5.60;;;1.25;;
67997;SDS011;54773;53.388;-1.504;2024-02-04T03:22:40;4.13;;;1.00;;
67997;SDS011;54773;53.388;-1.504;2024-02-04T03:25:24;2.95;;;0.93;;
67997;SDS011;54773;53.388;-1.504;2024-02-04T03:28:10;6.63;;;1.70;;
67997;SDS011;54773;53.388;-1.504;2024-02-04T03:30:53;3.37;;;1.47;;
67997;SDS011;54773;53.388;-1.504;2024-02-04T03:33:37;4.53;;;1.00;;
67997;SDS011;54773;53.388;-1.504;2024-02-04T03:36:22;5.23;;;1.20;;
67997;SDS011;54773;53.388;-1.504;2024-02-04T03:39:07;7.10;;;1.73;;
67997;SDS011;54773;53.388;-1.504;2024-02-04T03:41:51;5.13;;;1.10;;
67997;SDS011;54773;53.388;-1.504;2024-02-04T03:44:35;4.50;;;1.20;;
67997;SDS011;54773;53.388;-1.504;2024-02-04T03:47:19;4.30;;;1.08;;
67997;SDS011;54773;53.388;-1.504;2024-02-04T03:50:03;4.00;;;1.33;;
67997;SDS011;54773;53.388;-1.504;2024-02-04T03:52:48;3.83;;;1.35;;
67997;SDS011;54773;53.388;-1.504;2024-02-04T03:55:32;3.58;;;1.35;;
67997;SDS011;54773;53.388;-1.504;2024-02-04T03:58:16;5.20;;;1.63;;
67997;SDS011;54773;53.388;-1.504;2024-02-04T04:01:00;4.55;;;1.60;;
67997;SDS011;54773;53.388;-1.504;2024-02-04T04:03:44;3.50;;;2.03;;
67997;SDS011;54773;53.388;-1.504;2024-02-04T04:06:28;5.50;;;2.37;;
67997;SDS011;54773;53.388;-1.504;2024-02-04T04:09:12;9.07;;;2.53;;
67997;SDS011;54773;53.388;-1.504;2024-02-04T04:11:56;5.38;;;2.40;;
67997;SDS011;54773;53.388;-1.504;2024-02-04T04:14:40;3.83;;;1.52;;
67997;SDS011;54773;53.388;-1.504;2024-02-04T04:17:24;3.97;;;2.00;;
67997;SDS011;54773;53.388;-1.504;2024-02-04T04:20:08;3.83;;;1.90;;
67997;SDS011;54773;53.388;-1.504;2024-02-04T04:22:52;4.30;;;1.70;;
67997;SDS011;54773;53.388;-1.504;2024-02-04T04:25:36;4.03;;;1.38;;
67997;SDS011;54773;53.388;-1.504;2024-02-04T04:28:20;5.10;;;1.50;;
67997;SDS011;54773;53.388;-1.504;2024-02-04T04:31:04;4.97;;;1.30;;
67997;SDS011;54773;53.388;-1.504;2024-02-04T04:33:48;3.07;;;1.33;;
67997;SDS011;54773;53.388;-1.504;2024-02-04T04:36:32;6.13;;;1.55;;
67997;SDS011;54773;53.388;-1.504;2024-02-04T04:39:16;3.08;;;0.93;;
67997;SDS011;54773;53.388;-1.504;2024-02-04T04:42:00;6.07;;;1.17;;
67997;SDS011;54773;53.388;-1.504;2024-02-04T04:44:44;4.60;;;1.30;;
67997;SDS011;54773;53.388;-1.504;2024-02-04T04:47:28;4.28;;;1.25;;
67997;SDS011;54773;53.388;-1.504;2024-02-04T04:50:12;2.27;;;1.00;;
67997;SDS011;54773;53.388;-1.504;2024-02-04T04:52:56;2.10;;;0.73;;
67997;SDS011;54773;53.388;-1.504;2024-02-04T04:55:40;2.65;;;0.80;;
67997;SDS011;54773;53.388;-1.504;2024-02-04T04:58:24;3.63;;;0.90;;
67997;SDS011;54773;53.388;-1.504;2024-02-04T05:01:08;1.97;;;0.80;;
67997;SDS011;54773;53.388;-1.504;2024-02-04T05:03:52;2.83;;;0.98;;
67997;SDS011;54773;53.388;-1.504;2024-02-04T05:06:36;2.22;;;0.73;;
67997;SDS011;54773;53.388;-1.504;2024-02-04T05:09:19;6.38;;;0.85;;
67997;SDS011;54773;53.388;-1.504;2024-02-04T05:12:04;3.47;;;0.88;;
67997;SDS011;54773;53.388;-1.504;2024-02-04T05:14:48;4.30;;;0.75;;
67997;SDS011;54773;53.388;-1.504;2024-02-04T05:17:32;3.15;;;0.73;;
67997;SDS011;54773;53.388;-1.504;2024-02-04T05:20:17;2.53;;;0.68;;
67997;SDS011;54773;53.388;-1.504;2024-02-04T05:23:01;2.47;;;0.70;;
67997;SDS011;54773;53.388;-1.504;2024-02-04T05:25:45;7.43;;;0.90;;
67997;SDS011;54773;53.388;-1.504;2024-02-04T05:28:29;3.17;;;0.70;;
67997;SDS011;54773;53.388;-1.504;2024-02-04T05:31:13;2.05;;;0.77;;
67997;SDS011;54773;53.388;-1.504;2024-02-04T05:33:57;2.63;;;0.70;;
67997;SDS011;54773;53.388;-1.504;2024-02-04T05:36:41;2.63;;;0.63;;
67997;SDS011;54773;53.388;-1.504;2024-02-04T05:39:26;1.83;;;0.70;;
67997;SDS011;54773;53.388;-1.504;2024-02-04T05:42:09;0.93;;;0.50;;
67997;SDS011;54773;53.388;-1.504;2024-02-04T05:44:53;2.28;;;0.52;;
67997;SDS011;54773;53.388;-1.504;2024-02-04T05:47:37;1.90;;;0.47;;
67997;SDS011;54773;53.388;-1.504;2024-02-04T05:50:21;2.13;;;0.50;;
67997;SDS011;54773;53.388;-1.504;2024-02-04T05:53:05;2.30;;;0.70;;
67997;SDS011;54773;53.388;-1.504;2024-02-04T05:55:49;2.25;;;0.55;;
67997;SDS011;54773;53.388;-1.504;2024-02-04T05:58:33;0.90;;;0.47;;
67997;SDS011;54773;53.388;-1.504;2024-02-04T06:01:17;1.55;;;0.57;;
67997;SDS011;54773;53.388;-1.504;2024-02-04T06:04:02;1.20;;;0.50;;
67997;SDS011;54773;53.388;-1.504;2024-02-04T06:06:46;1.67;;;0.63;;
67997;SDS011;54773;53.388;-1.504;2024-02-04T06:09:31;1.75;;;0.60;;
67997;SDS011;54773;53.388;-1.504;2024-02-04T06:12:16;1.80;;;0.80;;
67997;SDS011;54773;53.388;-1.504;2024-02-04T06:15:00;2.38;;;0.75;;
67997;SDS011;54773;53.388;-1.504;2024-02-04T06:17:44;1.90;;;0.73;;
67997;SDS011;54773;53.388;-1.504;2024-02-04T06:20:28;1.75;;;0.70;;
67997;SDS011;54773;53.388;-1.504;2024-02-04T06:23:12;3.80;;;0.80;;
67997;SDS011;54773;53.388;-1.504;2024-02-04T06:25:55;3.07;;;1.00;;
67997;SDS011;54773;53.388;-1.504;2024-02-04T06:28:39;2.77;;;0.87;;
67997;SDS011;54773;53.388;-1.504;2024-02-04T06:31:23;2.38;;;1.00;;
67997;SDS011;54773;53.388;-1.504;2024-02-04T06:34:07;1.73;;;0.90;;
67997;SDS011;54773;53.388;-1.504;2024-02-04T06:36:51;1.83;;;0.73;;
67997;SDS011;54773;53.388;-1.504;2024-02-04T06:39:35;5.40;;;1.30;;
67997;SDS011;54773;53.388;-1.504;2024-02-04T06:42:19;2.45;;;1.25;;
67997;SDS011;54773;53.388;-1.504;2024-02-04T06:45:03;2.47;;;1.00;;
67997;SDS011;54773;53.388;-1.504;2024-02-04T06:47:48;3.05;;;0.95;;
67997;SDS011;54773;53.388;-1.504;2024-02-04T06:50:31;2.33;;;0.93;;
67997;SDS011;54773;53.388;-1.504;2024-02-04T06:53:15;2.73;;;0.97;;
67997;SDS011;54773;53.388;-1.504;2024-02-04T06:55:59;2.97;;;0.90;;
67997;SDS011;54773;53.388;-1.504;2024-02-04T06:58:43;1.92;;;0.98;;
67997;SDS011;54773;53.388;-1.504;2024-02-04T07:01:27;3.53;;;0.90;;
67997;SDS011;54773;53.388;-1.504;2024-02-04T07:04:12;1.65;;;0.80;;
67997;SDS011;54773;53.388;-1.504;2024-02-04T07:06:56;2.23;;;1.03;;
67997;SDS011;54773;53.388;-1.504;2024-02-04T07:09:40;1.80;;;0.75;;
67997;SDS011;54773;53.388;-1.504;2024-02-04T07:12:25;1.90;;;0.80;;
67997;SDS011;54773;53.388;-1.504;2024-02-04T07:15:09;1.63;;;0.60;;
67997;SDS011;54773;53.388;-1.504;2024-02-04T07:17:53;2.07;;;0.70;;
67997;SDS011;54773;53.388;-1.504;2024-02-04T07:20:37;1.90;;;0.73;;
67997;SDS011;54773;53.388;-1.504;2024-02-04T07:23:21;1.75;;;0.70;;
67997;SDS011;54773;53.388;-1.504;2024-02-04T07:26:05;1.88;;;0.60;;
67997;SDS011;54773;53.388;-1.504;2024-02-04T07:28:49;1.73;;;0.87;;
67997;SDS011;54773;53.388;-1.504;2024-02-04T07:31:33;1.27;;;0.70;;
67997;SDS011;54773;53.388;-1.504;2024-02-04T07:34:21;1.67;;;0.90;;
67997;SDS011;54773;53.388;-1.504;2024-02-04T07:37:05;2.20;;;0.70;;
67997;SDS011;54773;53.388;-1.504;2024-02-04T07:39:48;1.35;;;0.60;;
67997;SDS011;54773;53.388;-1.504;2024-02-04T07:42:33;1.85;;;0.70;;
67997;SDS011;54773;53.388;-1.504;2024-02-04T07:45:16;2.83;;;0.90;;
67997;SDS011;54773;53.388;-1.504;2024-02-04T07:48:00;1.40;;;0.60;;
67997;SDS011;54773;53.388;-1.504;2024-02-04T07:50:46;2.08;;;0.60;;
67997;SDS011;54773;53.388;-1.504;2024-02-04T07:53:30;1.35;;;0.65;;
67997;SDS011;54773;53.388;-1.504;2024-02-04T07:56:14;2.88;;;0.68;;
67997;SDS011;54773;53.388;-1.504;2024-02-04T07:58:58;1.02;;;0.50;;
67997;SDS011;54773;53.388;-1.504;2024-02-04T08:01:42;0.80;;;0.40;;
67997;SDS011;54773;53.388;-1.504;2024-02-04T08:04:26;0.80;;;0.50;;
67997;SDS011;54773;53.388;-1.504;2024-02-04T08:07:10;0.80;;;0.47;;
67997;SDS011;54773;53.388;-1.504;2024-02-04T08:09:54;0.90;;;0.50;;
67997;SDS011;54773;53.388;-1.504;2024-02-04T08:12:39;2.13;;;0.55;;
67997;SDS011;54773;53.388;-1.504;2024-02-04T08:15:23;1.13;;;0.57;;
67997;SDS011;54773;53.388;-1.504;2024-02-04T08:18:07;0.70;;;0.40;;
67997;SDS011;54773;53.388;-1.504;2024-02-04T08:20:51;0.87;;;0.40;;
67997;SDS011;54773;53.388;-1.504;2024-02-04T08:23:37;1.67;;;0.50;;
67997;SDS011;54773;53.388;-1.504;2024-02-04T08:26:20;0.93;;;0.50;;
67997;SDS011;54773;53.388;-1.504;2024-02-04T08:29:04;1.25;;;0.70;;
67997;SDS011;54773;53.388;-1.504;2024-02-04T08:31:48;1.08;;;0.52;;
67997;SDS011;54773;53.388;-1.504;2024-02-04T08:34:32;1.92;;;0.60;;
67997;SDS011;54773;53.388;-1.504;2024-02-04T08:37:16;0.67;;;0.50;;
67997;SDS011;54773;53.388;-1.504;2024-02-04T08:40:00;1.52;;;0.60;;
67997;SDS011;54773;53.388;-1.504;2024-02-04T08:42:45;1.33;;;0.60;;
67997;SDS011;54773;53.388;-1.504;2024-02-04T08:45:29;1.52;;;0.65;;
67997;SDS011;54773;53.388;-1.504;2024-02-04T08:48:12;1.43;;;0.60;;
67997;SDS011;54773;53.388;-1.504;2024-02-04T08:50:57;1.10;;;0.60;;
67997;SDS011;54773;53.388;-1.504;2024-02-04T08:53:41;0.68;;;0.50;;
67997;SDS011;54773;53.388;-1.504;2024-02-04T08:56:26;2.38;;;0.70;;
67997;SDS011;54773;53.388;-1.504;2024-02-04T08:59:10;2.60;;;1.10;;
67997;SDS011;54773;53.388;-1.504;2024-02-04T09:01:54;2.70;;;1.58;;
67997;SDS011;54773;53.388;-1.504;2024-02-04T09:04:38;4.20;;;1.70;;
67997;SDS011;54773;53.388;-1.504;2024-02-04T09:07:24;4.57;;;1.98;;
67997;SDS011;54773;53.388;-1.504;2024-02-04T09:10:08;4.57;;;2.13;;
67997;SDS011;54773;53.388;-1.504;2024-02-04T09:12:53;3.00;;;1.55;;
67997;SDS011;54773;53.388;-1.504;2024-02-04T09:15:37;3.08;;;1.20;;
67997;SDS011;54773;53.388;-1.504;2024-02-04T09:18:21;2.15;;;1.00;;
67997;SDS011;54773;53.388;-1.504;2024-02-04T09:21:05;1.50;;;0.90;;
67997;SDS011;54773;53.388;-1.504;2024-02-04T09:23:48;1.98;;;1.00;;
67997;SDS011;54773;53.388;-1.504;2024-02-04T09:26:32;3.17;;;1.20;;
67997;SDS011;54773;53.388;-1.504;2024-02-04T09:29:16;2.17;;;1.30;;
67997;SDS011;54773;53.388;-1.504;2024-02-04T09:32:00;2.50;;;1.20;;
67997;SDS011;54773;53.388;-1.504;2024-02-04T09:34:45;1.95;;;1.00;;
67997;SDS011;54773;53.388;-1.504;2024-02-04T09:37:29;1.80;;;0.90;;
67997;SDS011;54773;53.388;-1.504;2024-02-04T09:40:13;1.58;;;0.77;;
67997;SDS011;54773;53.388;-1.504;2024-02-04T09:42:58;1.55;;;0.85;;
67997;SDS011;54773;53.388;-1.504;2024-02-04T09:45:42;1.45;;;0.75;;
67997;SDS011;54773;53.388;-1.504;2024-02-04T09:48:29;1.48;;;0.80;;
67997;SDS011;54773;53.388;-1.504;2024-02-04T09:51:16;2.10;;;1.10;;
67997;SDS011;54773;53.388;-1.504;2024-02-04T09:54:02;3.90;;;1.60;;
67997;SDS011;54773;53.388;-1.504;2024-02-04T09:56:48;2.95;;;1.40;;
67997;SDS011;54773;53.388;-1.504;2024-02-04T09:59:34;4.78;;;1.40;;
67997;SDS011;54773;53.388;-1.504;2024-02-04T10:02:19;3.47;;;1.60;;
67997;SDS011;54773;53.388;-1.504;2024-02-04T10:05:04;4.13;;;1.67;;
67997;SDS011;54773;53.388;-1.504;2024-02-04T10:07:49;3.83;;;1.60;;
67997;SDS011;54773;53.388;-1.504;2024-02-04T10:10:33;3.97;;;1.33;;
67997;SDS011;54773;53.388;-1.504;2024-02-04T10:13:17;3.60;;;1.30;;
67997;SDS011;54773;53.388;-1.504;2024-02-04T10:16:01;7.00;;;1.33;;
67997;SDS011;54773;53.388;-1.504;2024-02-04T10:18:45;4.28;;;1.38;;
67997;SDS011;54773;53.388;-1.504;2024-02-04T10:21:31;5.45;;;1.60;;
67997;SDS011;54773;53.388;-1.504;2024-02-04T10:24:15;3.42;;;1.20;;
67997;SDS011;54773;53.388;-1.504;2024-02-04T10:26:59;5.20;;;1.53;;
67997;SDS011;54773;53.388;-1.504;2024-02-04T10:29:43;4.90;;;1.60;;
67997;SDS011;54773;53.388;-1.504;2024-02-04T10:32:26;4.93;;;1.90;;
67997;SDS011;54773;53.388;-1.504;2024-02-04T10:35:11;7.07;;;1.45;;
67997;SDS011;54773;53.388;-1.504;2024-02-04T10:37:55;3.80;;;1.75;;
67997;SDS011;54773;53.388;-1.504;2024-02-04T10:40:39;5.80;;;1.73;;
67997;SDS011;54773;53.388;-1.504;2024-02-04T10:43:23;4.72;;;1.70;;
67997;SDS011;54773;53.388;-1.504;2024-02-04T10:48:57;3.63;;;1.60;;
67997;SDS011;54773;53.388;-1.504;2024-02-04T10:51:43;6.32;;;2.00;;
67997;SDS011;54773;53.388;-1.504;2024-02-04T10:54:29;3.72;;;1.70;;
67997;SDS011;54773;53.388;-1.504;2024-02-04T10:57:14;3.67;;;1.65;;
67997;SDS011;54773;53.388;-1.504;2024-02-04T11:00:03;3.50;;;1.50;;
67997;SDS011;54773;53.388;-1.504;2024-02-04T11:02:55;6.32;;;2.65;;
67997;SDS011;54773;53.388;-1.504;2024-02-04T11:05:40;7.03;;;2.53;;
67997;SDS011;54773;53.388;-1.504;2024-02-04T11:08:26;4.47;;;1.90;;
67997;SDS011;54773;53.388;-1.504;2024-02-04T11:11:10;3.97;;;2.08;;
67997;SDS011;54773;53.388;-1.504;2024-02-04T11:13:55;4.00;;;1.73;;
67997;SDS011;54773;53.388;-1.504;2024-02-04T11:17:03;4.93;;;1.88;;
67997;SDS011;54773;53.388;-1.504;2024-02-04T11:23:27;5.35;;;2.00;;
67997;SDS011;54773;53.388;-1.504;2024-02-04T11:26:25;4.25;;;2.25;;
67997;SDS011;54773;53.388;-1.504;2024-02-04T11:29:09;7.53;;;2.85;;
67997;SDS011;54773;53.388;-1.504;2024-02-04T11:31:54;4.68;;;2.20;;
67997;SDS011;54773;53.388;-1.504;2024-02-04T11:34:38;8.93;;;2.90;;
67997;SDS011;54773;53.388;-1.504;2024-02-04T11:37:22;5.15;;;2.05;;
67997;SDS011;54773;53.388;-1.504;2024-02-04T11:40:07;4.18;;;1.80;;
67997;SDS011;54773;53.388;-1.504;2024-02-04T11:42:51;4.72;;;1.80;;
67997;SDS011;54773;53.388;-1.504;2024-02-04T11:45:41;3.90;;;1.80;;
67997;SDS011;54773;53.388;-1.504;2024-02-04T11:48:30;4.18;;;1.70;;
67997;SDS011;54773;53.388;-1.504;2024-02-04T11:51:17;5.25;;;1.48;;
67997;SDS011;54773;53.388;-1.504;2024-02-04T11:54:01;4.95;;;2.03;;
67997;SDS011;54773;53.388;-1.504;2024-02-04T11:56:49;5.80;;;1.80;;
67997;SDS011;54773;53.388;-1.504;2024-02-04T11:59:36;9.27;;;1.80;;
67997;SDS011;54773;53.388;-1.504;2024-02-04T12:02:20;4.65;;;1.60;;
67997;SDS011;54773;53.388;-1.504;2024-02-04T12:05:04;5.97;;;1.30;;
67997;SDS011;54773;53.388;-1.504;2024-02-04T12:07:49;5.20;;;1.60;;
67997;SDS011;54773;53.388;-1.504;2024-02-04T12:10:34;5.63;;;1.73;;
67997;SDS011;54773;53.388;-1.504;2024-02-04T12:13:19;3.42;;;1.55;;
67997;SDS011;54773;53.388;-1.504;2024-02-04T12:16:05;5.50;;;1.67;;
67997;SDS011;54773;53.388;-1.504;2024-02-04T12:18:52;4.57;;;1.30;;
67997;SDS011;54773;53.388;-1.504;2024-02-04T12:21:36;5.97;;;1.40;;
67997;SDS011;54773;53.388;-1.504;2024-02-04T12:24:23;4.15;;;1.27;;
67997;SDS011;54773;53.388;-1.504;2024-02-04T12:27:07;4.90;;;1.38;;
67997;SDS011;54773;53.388;-1.504;2024-02-04T12:29:51;4.18;;;1.58;;
67997;SDS011;54773;53.388;-1.504;2024-02-04T12:32:38;4.85;;;1.40;;
67997;SDS011;54773;53.388;-1.504;2024-02-04T12:35:22;3.03;;;1.17;;
67997;SDS011;54773;53.388;-1.504;2024-02-04T12:38:06;4.18;;;1.50;;
67997;SDS011;54773;53.388;-1.504;2024-02-04T12:40:51;3.00;;;1.20;;
67997;SDS011;54773;53.388;-1.504;2024-02-04T12:43:35;3.55;;;1.27;;
67997;SDS011;54773;53.388;-1.504;2024-02-04T12:46:20;3.88;;;1.40;;
67997;SDS011;54773;53.388;-1.504;2024-02-04T12:49:04;4.28;;;1.80;;
67997;SDS011;54773;53.388;-1.504;2024-02-04T12:51:49;6.28;;;2.97;;
67997;SDS011;54773;53.388;-1.504;2024-02-04T12:54:42;6.47;;;2.70;;
67997;SDS011;54773;53.388;-1.504;2024-02-04T12:57:27;5.22;;;2.75;;
67997;SDS011;54773;53.388;-1.504;2024-02-04T13:00:11;6.55;;;2.88;;
67997;SDS011;54773;53.388;-1.504;2024-02-04T13:02:57;5.30;;;2.08;;
67997;SDS011;54773;53.388;-1.504;2024-02-04T13:05:41;3.38;;;1.42;;
67997;SDS011;54773;53.388;-1.504;2024-02-04T13:08:25;3.00;;;1.55;;
67997;SDS011;54773;53.388;-1.504;2024-02-04T13:11:10;2.65;;;1.00;;
67997;SDS011;54773;53.388;-1.504;2024-02-04T13:13:54;3.63;;;1.38;;
67997;SDS011;54773;53.388;-1.504;2024-02-04T13:16:40;3.05;;;1.15;;
67997;SDS011;54773;53.388;-1.504;2024-02-04T13:19:24;4.32;;;1.30;;
67997;SDS011;54773;53.388;-1.504;2024-02-04T13:22:08;3.40;;;1.17;;
67997;SDS011;54773;53.388;-1.504;2024-02-04T13:24:59;3.72;;;1.80;;
67997;SDS011;54773;53.388;-1.504;2024-02-04T13:27:42;5.25;;;2.35;;
67997;SDS011;54773;53.388;-1.504;2024-02-04T13:30:27;6.23;;;3.13;;
67997;SDS011;54773;53.388;-1.504;2024-02-04T13:33:11;7.57;;;3.42;;
67997;SDS011;54773;53.388;-1.504;2024-02-04T13:35:55;5.22;;;3.15;;
67997;SDS011;54773;53.388;-1.504;2024-02-04T13:38:39;6.85;;;2.58;;
67997;SDS011;54773;53.388;-1.504;2024-02-04T13:41:23;5.20;;;2.47;;
67997;SDS011;54773;53.388;-1.504;2024-02-04T13:44:07;7.33;;;3.17;;
67997;SDS011;54773;53.388;-1.504;2024-02-04T13:46:51;4.93;;;2.83;;
67997;SDS011;54773;53.388;-1.504;2024-02-04T13:49:35;4.73;;;2.70;;
67997;SDS011;54773;53.388;-1.504;2024-02-04T13:52:19;4.88;;;2.58;;
67997;SDS011;54773;53.388;-1.504;2024-02-04T13:55:04;5.90;;;1.90;;
67997;SDS011;54773;53.388;-1.504;2024-02-04T13:57:49;4.72;;;1.85;;
67997;SDS011;54773;53.388;-1.504;2024-02-04T14:00:33;4.57;;;2.00;;
67997;SDS011;54773;53.388;-1.504;2024-02-04T14:03:17;3.67;;;1.50;;
67997;SDS011;54773;53.388;-1.504;2024-02-04T14:06:02;5.28;;;1.67;;
67997;SDS011;54773;53.388;-1.504;2024-02-04T14:08:47;7.80;;;2.30;;
67997;SDS011;54773;53.388;-1.504;2024-02-04T14:11:31;5.15;;;1.45;;
67997;SDS011;54773;53.388;-1.504;2024-02-04T14:14:15;3.30;;;1.20;;
67997;SDS011;54773;53.388;-1.504;2024-02-04T14:16:59;4.13;;;1.20;;
67997;SDS011;54773;53.388;-1.504;2024-02-04T14:19:43;4.75;;;1.45;;
67997;SDS011;54773;53.388;-1.504;2024-02-04T14:22:32;6.18;;;1.70;;
67997;SDS011;54773;53.388;-1.504;2024-02-04T14:25:16;5.00;;;1.20;;
67997;SDS011;54773;53.388;-1.504;2024-02-04T14:28:00;3.83;;;1.30;;
67997;SDS011;54773;53.388;-1.504;2024-02-04T14:30:44;4.25;;;1.30;;
67997;SDS011;54773;53.388;-1.504;2024-02-04T14:33:29;4.45;;;1.40;;
67997;SDS011;54773;53.388;-1.504;2024-02-04T14:36:13;9.27;;;1.60;;
67997;SDS011;54773;53.388;-1.504;2024-02-04T14:38:57;3.30;;;1.00;;
67997;SDS011;54773;53.388;-1.504;2024-02-04T14:41:41;3.72;;;1.40;;
67997;SDS011;54773;53.388;-1.504;2024-02-04T14:44:25;5.68;;;1.65;;
67997;SDS011;54773;53.388;-1.504;2024-02-04T14:47:09;4.47;;;1.07;;
67997;SDS011;54773;53.388;-1.504;2024-02-04T14:49:54;4.70;;;1.50;;
67997;SDS011;54773;53.388;-1.504;2024-02-04T14:52:38;3.85;;;1.40;;
67997;SDS011;54773;53.388;-1.504;2024-02-04T14:55:22;3.57;;;0.93;;
67997;SDS011;54773;53.388;-1.504;2024-02-04T14:58:06;3.72;;;1.10;;
67997;SDS011;54773;53.388;-1.504;2024-02-04T15:00:50;3.93;;;1.00;;
67997;SDS011;54773;53.388;-1.504;2024-02-04T15:03:34;3.38;;;1.13;;
67997;SDS011;54773;53.388;-1.504;2024-02-04T15:06:19;2.97;;;1.00;;
67997;SDS011;54773;53.388;-1.504;2024-02-04T15:09:03;4.05;;;1.10;;
67997;SDS011;54773;53.388;-1.504;2024-02-04T15:11:47;5.00;;;0.90;;
67997;SDS011;54773;53.388;-1.504;2024-02-04T15:14:31;4.38;;;1.00;;
67997;SDS011;54773;53.388;-1.504;2024-02-04T15:17:16;5.38;;;1.35;;
67997;SDS011;54773;53.388;-1.504;2024-02-04T15:20:00;6.28;;;1.80;;
67997;SDS011;54773;53.388;-1.504;2024-02-04T15:22:45;2.78;;;1.30;;
67997;SDS011;54773;53.388;-1.504;2024-02-04T15:25:30;6.03;;;1.50;;
67997;SDS011;54773;53.388;-1.504;2024-02-04T15:28:14;5.57;;;2.10;;
67997;SDS011;54773;53.388;-1.504;2024-02-04T15:30:59;9.20;;;2.00;;
67997;SDS011;54773;53.388;-1.504;2024-02-04T15:33:43;6.03;;;1.90;;
67997;SDS011;54773;53.388;-1.504;2024-02-04T15:36:28;7.30;;;1.60;;
67997;SDS011;54773;53.388;-1.504;2024-02-04T15:39:11;7.00;;;1.53;;
67997;SDS011;54773;53.388;-1.504;2024-02-04T15:41:56;3.38;;;1.60;;
67997;SDS011;54773;53.388;-1.504;2024-02-04T15:44:39;6.17;;;1.67;;
67997;SDS011;54773;53.388;-1.504;2024-02-04T15:47:23;5.13;;;1.50;;
67997;SDS011;54773;53.388;-1.504;2024-02-04T15:50:11;9.27;;;1.95;;
67997;SDS011;54773;53.388;-1.504;2024-02-04T15:52:55;7.43;;;1.75;;
67997;SDS011;54773;53.388;-1.504;2024-02-04T15:55:40;8.55;;;2.05;;
67997;SDS011;54773;53.388;-1.504;2024-02-04T15:58:25;4.88;;;1.40;;
67997;SDS011;54773;53.388;-1.504;2024-02-04T16:01:15;7.85;;;1.70;;
67997;SDS011;54773;53.388;-1.504;2024-02-04T16:03:59;5.53;;;2.00;;
67997;SDS011;54773;53.388;-1.504;2024-02-04T16:06:44;5.85;;;1.85;;
67997;SDS011;54773;53.388;-1.504;2024-02-04T16:09:28;7.13;;;1.98;;
67997;SDS011;54773;53.388;-1.504;2024-02-04T16:12:22;5.90;;;1.80;;
67997;SDS011;54773;53.388;-1.504;2024-02-04T16:15:07;9.02;;;2.13;;
67997;SDS011;54773;53.388;-1.504;2024-02-04T16:17:53;7.88;;;2.05;;
67997;SDS011;54773;53.388;-1.504;2024-02-04T16:20:38;11.02;;;2.10;;
67997;SDS011;54773;53.388;-1.504;2024-02-04T16:23:24;6.40;;;1.65;;
67997;SDS011;54773;53.388;-1.504;2024-02-04T16:26:09;8.07;;;2.20;;
67997;SDS011;54773;53.388;-1.504;2024-02-04T16:28:53;7.13;;;1.95;;
67997;SDS011;54773;53.388;-1.504;2024-02-04T16:31:37;7.38;;;2.35;;